Time;durP1;ratioP1;P1;durP2;ratioP2;P2;SDS_P1;SDS_P2;PMS_P1;PMS_P2;Temp;Humidity;BMP_temperature;BMP_pressure;BME280_temperature;BME280_humidity;BME280_pressure;Samples;Min_cycle;Max_cycle;Signal;HPM_P1;HPM_P2
2022/05/25 00:00:30;;;;;;;21.37;5.10;;;;;;;38.37;40.63;101301.06;5012757;28;20799;-73
2022/05/25 00:02:56;;;;;;;14.50;4.90;;;;;;;38.41;40.23;101297.44;5012773;28;20800;-73
2022/05/25 00:05:22;;;;;;;12.90;4.70;;;;;;;38.39;40.53;101296.13;5012688;28;20424;-73
2022/05/25 00:07:49;;;;;;;15.80;6.03;;;;;;;38.34;40.53;101299.72;5012696;28;20416;-73
2022/05/25 00:10:15;;;;;;;14.70;6.70;;;;;;;38.38;40.52;101300.75;5012161;28;20440;-73
2022/05/25 00:12:41;;;;;;;10.60;4.10;;;;;;;38.35;40.67;101300.53;5012637;28;20460;-73
2022/05/25 00:15:10;;;;;;;8.63;3.90;;;;;;;38.36;40.84;101297.50;5012396;28;20491;-73
2022/05/25 00:17:36;;;;;;;13.90;5.00;;;;;;;38.39;40.63;101301.56;5012539;28;20421;-73
2022/05/25 00:20:03;;;;;;;16.03;5.40;;;;;;;38.38;40.12;101299.94;5012545;28;20807;-73
2022/05/25 00:22:50;;;;;;;19.90;5.73;;;;;;;38.38;40.23;101294.53;5012674;28;20420;-73
2022/05/25 00:25:30;;;;;;;13.60;5.10;;;;;;;38.37;39.97;101287.50;5012411;28;20906;-73
2022/05/25 00:27:57;;;;;;;13.90;5.63;;;;;;;38.37;39.61;101288.31;5012427;28;20452;-73
2022/05/25 00:30:25;;;;;;;11.03;4.47;;;;;;;38.37;39.55;101284.78;5013844;28;20436;-73
2022/05/25 00:32:51;;;;;;;18.20;6.03;;;;;;;38.40;39.38;101278.75;5012288;28;20423;-73
2022/05/25 00:35:20;;;;;;;21.57;7.67;;;;;;;38.43;39.11;101286.31;5012238;28;20452;-73
2022/05/25 00:37:46;;;;;;;12.17;3.97;;;;;;;38.41;38.67;101280.38;5012182;28;20444;-73
2022/05/25 00:40:34;;;;;;;14.23;4.87;;;;;;;38.40;39.05;101271.44;5011922;28;20476;-73
2022/05/25 00:43:00;;;;;;;14.07;3.90;;;;;;;38.44;38.97;101271.66;5011996;28;20455;-73
2022/05/25 00:45:26;;;;;;;10.93;4.60;;;;;;;38.41;39.45;101275.75;5012054;28;20420;-73
2022/05/25 00:47:53;;;;;;;11.60;5.13;;;;;;;38.43;39.23;101270.03;5012007;28;20819;-73
2022/05/25 00:50:22;;;;;;;7.80;4.37;;;;;;;38.38;39.54;101267.44;5011909;28;20981;-73
2022/05/25 00:52:50;;;;;;;14.27;6.77;;;;;;;38.35;39.42;101268.00;5011982;28;20567;-73
2022/05/25 00:55:26;;;;;;;18.00;7.00;;;;;;;38.29;39.15;101261.88;5011932;28;20467;-73
2022/05/25 00:57:56;;;;;;;13.87;7.47;;;;;;;38.34;39.20;101261.00;5011885;28;20436;-73
2022/05/25 01:00:26;;;;;;;17.33;6.03;;;;;;;38.28;39.30;101257.56;5011784;28;20468;-73
2022/05/25 01:03:21;;;;;;;15.30;6.73;;;;;;;38.29;39.12;101247.53;5011850;28;20933;-73
2022/05/25 01:06:08;;;;;;;11.83;4.00;;;;;;;38.25;38.62;101247.31;5004510;28;20424;-73
2022/05/25 01:09:27;;;;;;;17.87;5.10;;;;;;;38.23;39.25;101254.13;5011885;28;20474;-73
2022/05/25 01:12:10;;;;;;;20.87;5.93;;;;;;;38.24;39.12;101251.09;4981907;28;20946;-73
2022/05/25 01:14:54;;;;;;;13.63;6.30;;;;;;;38.24;39.43;101239.47;5013183;28;20521;-73
2022/05/25 01:17:20;;;;;;;13.27;6.67;;;;;;;38.27;38.99;101239.72;5011665;28;20430;-73
2022/05/25 01:20:28;;;;;;;11.27;4.40;;;;;;;38.22;39.38;101247.88;5011432;28;20454;-73
2022/05/25 01:23:31;;;;;;;18.43;4.70;;;;;;;38.23;38.98;101246.78;4955770;28;20829;-73
2022/05/25 01:26:25;;;;;;;9.40;3.87;;;;;;;38.21;39.28;101245.50;5011497;28;20914;-73
2022/05/25 01:29:37;;;;;;;15.70;5.40;;;;;;;38.20;39.13;101243.88;5011639;28;20851;-73
2022/05/25 01:32:07;;;;;;;11.67;4.97;;;;;;;38.21;39.15;101249.00;5013051;28;20423;-73
2022/05/25 01:34:35;;;;;;;12.23;5.83;;;;;;;38.24;39.44;101250.28;5011495;28;20445;-73
2022/05/25 01:37:24;;;;;;;12.63;6.60;;;;;;;38.24;39.70;101250.28;5011401;28;20417;-73
2022/05/25 01:40:00;;;;;;;16.13;5.00;;;;;;;38.18;39.46;101253.13;5011241;28;20974;-73
2022/05/25 01:42:36;;;;;;;13.20;5.20;;;;;;;38.20;39.26;101252.00;5011245;28;20930;-73
2022/05/25 01:45:07;;;;;;;15.70;6.67;;;;;;;38.22;38.90;101253.31;5011350;28;20782;-73
2022/05/25 01:47:35;;;;;;;19.00;5.30;;;;;;;38.21;39.19;101248.19;5011576;28;21019;-73
2022/05/25 01:50:19;;;;;;;16.70;4.77;;;;;;;38.22;39.12;101245.19;5011380;28;20427;-73
2022/05/25 01:52:58;;;;;;;10.97;4.07;;;;;;;38.22;39.08;101247.09;5011303;28;20432;-73
2022/05/25 01:55:28;;;;;;;14.60;4.27;;;;;;;38.28;39.25;101246.72;5011210;28;20451;-73
2022/05/25 01:58:02;;;;;;;11.67;4.10;;;;;;;38.21;39.16;101253.63;5012224;28;20448;-73
2022/05/25 02:00:33;;;;;;;13.97;5.70;;;;;;;38.24;39.11;101251.09;5012781;28;20400;-73
2022/05/25 02:06:15;;;;;;;18.27;5.60;;;;;;;38.26;39.26;101238.09;5012419;28;20391;-73
2022/05/25 02:08:46;;;;;;;14.77;6.30;;;;;;;38.27;39.45;101245.13;5012692;28;20428;-73
2022/05/25 02:11:23;;;;;;;13.17;5.00;;;;;;;38.28;39.18;101241.31;5011233;28;20970;-73
2022/05/25 02:14:31;;;;;;;9.23;3.63;;;;;;;38.17;39.44;101240.66;5011047;28;20915;-73
2022/05/25 02:17:09;;;;;;;8.70;4.37;;;;;;;38.19;39.08;101237.66;5011047;28;20900;-73
2022/05/25 02:19:53;;;;;;;8.13;3.90;;;;;;;38.13;39.59;101244.28;5011079;28;20413;-73
2022/05/25 02:22:41;;;;;;;21.33;6.43;;;;;;;38.13;39.57;101239.66;5011035;28;20420;-73
2022/05/25 02:25:19;;;;;;;10.00;5.17;;;;;;;38.10;39.61;101247.56;5011034;28;20444;-73
2022/05/25 02:28:05;;;;;;;12.63;5.47;;;;;;;38.09;40.14;101248.69;5011069;28;20424;-73
2022/05/25 02:30:35;;;;;;;18.20;6.03;;;;;;;38.10;39.81;101240.25;5010931;28;20809;-73
2022/05/25 02:33:15;;;;;;;18.83;5.87;;;;;;;38.17;39.86;101251.50;5012479;28;20444;-73
2022/05/25 02:35:44;;;;;;;13.43;5.60;;;;;;;37.98;39.84;101245.34;5014456;28;20978;-73
2022/05/25 02:38:11;;;;;;;12.30;7.00;;;;;;;37.90;41.00;101243.31;5014132;28;20504;-73
2022/05/25 02:40:39;;;;;;;14.90;5.47;;;;;;;37.73;41.92;101243.81;5015934;28;20494;-73
2022/05/25 02:43:07;;;;;;;8.63;6.27;;;;;;;37.61;42.34;101232.66;5014298;28;20787;-73
2022/05/25 02:45:37;;;;;;;9.70;5.13;;;;;;;37.60;42.33;101234.56;5014370;28;20496;-73
2022/05/25 02:48:04;;;;;;;15.50;7.67;;;;;;;37.49;42.67;101249.34;5014291;28;20447;-73
2022/05/25 02:50:30;;;;;;;12.03;7.33;;;;;;;37.52;43.01;101243.34;5014124;28;20413;-73
2022/05/25 02:52:57;;;;;;;19.10;8.87;;;;;;;37.50;43.57;101239.31;5014097;28;20412;-73
2022/05/25 02:55:24;;;;;;;15.90;7.40;;;;;;;37.37;43.51;101246.28;5015607;28;20440;-73
2022/05/25 02:57:50;;;;;;;17.17;9.27;;;;;;;37.44;43.78;101248.63;5014130;28;20945;-73
2022/05/25 03:00:16;;;;;;;19.97;11.40;;;;;;;37.47;43.70;101254.25;5013972;28;20962;-73
2022/05/25 03:02:42;;;;;;;18.60;11.93;;;;;;;37.47;43.85;101258.88;5015529;28;20452;-73
2022/05/25 03:05:10;;;;;;;22.27;10.87;;;;;;;37.33;43.67;101264.97;5013961;28;20495;-73
2022/05/25 03:07:36;;;;;;;18.63;11.77;;;;;;;37.46;43.80;101263.47;5013731;28;20852;-73
2022/05/25 03:10:04;;;;;;;17.00;11.80;;;;;;;37.59;43.45;101265.44;5013963;28;20429;-73
2022/05/25 03:12:31;;;;;;;14.83;10.50;;;;;;;37.46;44.09;101271.59;5013120;28;20464;-73
2022/05/25 03:14:57;;;;;;;18.87;11.50;;;;;;;37.40;44.63;101274.66;5013582;28;21047;-73
2022/05/25 03:17:23;;;;;;;26.50;13.57;;;;;;;37.46;44.52;101268.09;5030018;28;20775;-72
2022/05/25 03:19:55;;;;;;;20.00;11.77;;;;;;;37.47;44.61;101262.38;5013544;28;20865;-72
2022/05/25 03:22:22;;;;;;;23.60;12.73;;;;;;;37.39;45.02;101265.75;5013862;28;20416;-72
2022/05/25 03:24:49;;;;;;;29.43;14.80;;;;;;;37.50;44.98;101271.78;5013404;28;20474;-72
2022/05/25 03:27:15;;;;;;;23.47;12.90;;;;;;;37.40;44.75;101274.66;5013524;28;20793;-73
2022/05/25 03:29:42;;;;;;;22.17;12.43;;;;;;;37.29;44.99;101276.69;5013563;28;20427;-74
2022/05/25 03:32:10;;;;;;;28.87;11.50;;;;;;;37.38;45.28;101272.22;5014779;28;20389;-73
2022/05/25 03:34:36;;;;;;;26.10;15.97;;;;;;;37.51;44.98;101276.94;5015102;28;20400;-74
2022/05/25 03:37:03;;;;;;;27.87;17.70;;;;;;;37.57;45.01;101277.66;5013191;28;20412;-74
2022/05/25 03:39:29;;;;;;;16.20;12.53;;;;;;;37.62;44.87;101278.38;5013348;28;20464;-74
2022/05/25 03:42:07;;;;;;;18.53;13.63;;;;;;;37.55;44.94;101277.13;5013287;28;20423;-74
2022/05/25 03:44:36;;;;;;;19.00;12.77;;;;;;;37.49;44.79;101273.69;5012231;28;20419;-74
2022/05/25 03:47:03;;;;;;;21.60;14.17;;;;;;;37.52;45.19;101280.44;5013241;28;20931;-73
2022/05/25 03:49:29;;;;;;;22.43;12.73;;;;;;;37.49;44.92;101281.81;5012996;28;20504;-74
2022/05/25 03:51:55;;;;;;;26.23;14.00;;;;;;;37.44;44.93;101281.09;5013600;28;20504;-74
2022/05/25 03:54:21;;;;;;;21.53;16.30;;;;;;;37.32;45.23;101287.72;5012885;28;20424;-73
2022/05/25 03:56:48;;;;;;;26.60;17.13;;;;;;;37.27;45.25;101293.22;5013017;28;20424;-72
2022/05/25 03:59:14;;;;;;;26.33;15.30;;;;;;;37.25;45.64;101294.56;5013006;28;20912;-72
2022/05/25 04:01:40;;;;;;;25.07;15.73;;;;;;;37.26;44.93;101285.34;5012950;28;20535;-72
2022/05/25 04:04:06;;;;;;;21.07;14.77;;;;;;;37.28;44.94;101286.69;5013267;28;20393;-72
2022/05/25 04:06:32;;;;;;;24.80;16.27;;;;;;;37.07;45.43;101296.97;5012831;28;20552;-72
2022/05/25 04:08:58;;;;;;;24.23;17.23;;;;;;;37.03;45.57;101298.66;5012774;28;20432;-72
2022/05/25 04:11:24;;;;;;;23.97;16.90;;;;;;;37.09;45.39;101302.09;5014655;28;20405;-72
2022/05/25 04:13:50;;;;;;;27.63;16.27;;;;;;;37.15;45.28;101310.97;5012622;28;20428;-72
2022/05/25 04:16:17;;;;;;;25.57;16.60;;;;;;;37.08;45.27;101306.72;5012529;28;20463;-72
2022/05/25 04:18:43;;;;;;;17.33;12.83;;;;;;;37.11;45.02;101303.41;5012543;28;20491;-72
2022/05/25 04:21:09;;;;;;;29.77;17.70;;;;;;;36.99;45.16;101302.22;5014299;28;20412;-72
2022/05/25 04:23:35;;;;;;;27.97;16.60;;;;;;;36.98;44.85;101304.13;5012809;28;20420;-72
2022/05/25 04:26:01;;;;;;;27.30;16.03;;;;;;;36.95;45.18;101306.59;5011614;28;20522;-72
2022/05/25 04:28:27;;;;;;;32.20;18.87;;;;;;;36.96;45.06;101306.31;5023867;28;20428;-72
2022/05/25 04:30:53;;;;;;;28.13;17.53;;;;;;;37.02;45.32;101307.06;5012322;28;20451;-72
2022/05/25 04:33:20;;;;;;;23.50;17.17;;;;;;;37.09;45.12;101302.09;5028727;28;20408;-72
2022/05/25 04:35:46;;;;;;;25.30;15.43;;;;;;;37.05;44.69;101299.16;5013936;28;20451;-72
2022/05/25 04:38:15;;;;;;;26.90;17.00;;;;;;;37.05;44.29;101301.06;5028458;28;20431;-73
2022/05/25 04:40:44;;;;;;;22.83;12.93;;;;;;;36.84;44.41;101292.38;5013266;28;20436;-72
2022/05/25 04:43:13;;;;;;;23.60;14.70;;;;;;;36.88;44.74;101304.22;5020853;28;20416;-72
2022/05/25 04:45:41;;;;;;;21.17;13.53;;;;;;;36.83;45.18;101301.56;5028599;28;20432;-72
2022/05/25 04:48:08;;;;;;;21.60;15.07;;;;;;;36.79;45.07;101298.63;5028787;28;20408;-72
2022/05/25 04:50:42;;;;;;;20.17;15.20;;;;;;;36.84;45.09;101297.78;5028514;28;20431;-72
2022/05/25 04:53:17;;;;;;;25.70;14.37;;;;;;;36.64;45.58;101303.38;5011963;28;20471;-72
2022/05/25 04:58:40;;;;;;;23.80;14.97;;;;;;;36.82;45.11;101313.47;5013448;28;20434;-74
2022/05/25 05:01:08;;;;;;;20.17;15.80;;;;;;;36.74;44.88;101312.19;5011899;28;20415;-74
2022/05/25 05:03:35;;;;;;;18.40;13.53;;;;;;;36.80;44.83;101305.66;5011823;28;20475;-74
2022/05/25 05:06:02;;;;;;;24.17;14.03;;;;;;;36.65;44.75;101311.22;5028269;28;20408;-74
2022/05/25 05:08:28;;;;;;;22.07;12.67;;;;;;;36.53;44.96;101313.53;5013359;28;20404;-72
2022/05/25 05:10:56;;;;;;;24.17;13.87;;;;;;;36.50;45.38;101323.00;5028153;28;20436;-72
2022/05/25 05:13:22;;;;;;;22.17;14.63;;;;;;;36.51;45.50;101321.88;5012013;28;20495;-72
2022/05/25 05:15:51;;;;;;;26.23;14.27;;;;;;;36.57;44.78;101323.44;5027949;28;20482;-72
2022/05/25 05:18:19;;;;;;;24.43;13.93;;;;;;;36.66;45.09;101326.34;5011780;28;20436;-72
2022/05/25 05:20:46;;;;;;;22.60;14.57;;;;;;;36.56;45.18;101327.25;5028125;28;20474;-73
2022/05/25 05:23:12;;;;;;;27.93;15.40;;;;;;;36.51;44.99;101329.19;5011962;28;20765;-73
2022/05/25 05:25:39;;;;;;;20.10;14.30;;;;;;;36.46;46.01;101331.94;5013266;28;20389;-72
2022/05/25 05:28:10;;;;;;;25.60;14.80;;;;;;;36.39;45.62;101337.69;5012955;28;20432;-72
2022/05/25 05:30:43;;;;;;;28.07;16.00;;;;;;;36.34;45.88;101335.00;5011581;28;20942;-73
2022/05/25 05:33:09;;;;;;;25.60;15.90;;;;;;;36.34;45.58;101343.13;5013097;28;20400;-73
2022/05/25 05:35:35;;;;;;;25.50;15.50;;;;;;;36.38;46.08;101346.03;5028088;28;20472;-72
2022/05/25 05:38:01;;;;;;;26.40;19.07;;;;;;;36.41;46.27;101350.94;5011394;28;20439;-72
2022/05/25 05:40:29;;;;;;;27.07;17.87;;;;;;;36.43;46.09;101363.03;5012988;28;20876;-72
2022/05/25 05:42:55;;;;;;;25.60;18.90;;;;;;;36.52;45.98;101364.06;5027919;28;20447;-73
2022/05/25 05:45:28;;;;;;;24.23;16.57;;;;;;;36.56;45.60;101366.97;5013024;28;20389;-73
2022/05/25 05:47:59;;;;;;;32.43;15.90;;;;;;;36.48;45.74;101373.00;5027847;28;20440;-71
2022/05/25 05:50:25;;;;;;;24.60;16.50;;;;;;;36.59;45.39;101375.34;5027788;28;20412;-73
2022/05/25 05:52:52;;;;;;;22.50;17.13;;;;;;;36.61;45.30;101383.16;5012979;28;20408;-72
2022/05/25 05:55:20;;;;;;;33.87;17.83;;;;;;;36.57;45.31;101382.09;5027808;28;20563;-72
2022/05/25 05:57:46;;;;;;;27.70;19.50;;;;;;;36.48;45.18;101400.03;5027648;28;20413;-72
2022/05/25 06:00:15;;;;;;;27.80;20.73;;;;;;;36.59;45.61;101388.06;5027700;28;20428;-73
2022/05/25 06:02:44;;;;;;;26.07;17.73;;;;;;;36.69;45.13;101393.34;5027595;28;20440;-72
2022/05/25 06:05:11;;;;;;;28.30;19.07;;;;;;;36.51;45.56;101404.84;5027670;28;20945;-72
2022/05/25 06:07:38;;;;;;;32.83;22.67;;;;;;;36.43;45.42;101402.78;5028666;28;20803;-73
2022/05/25 06:10:06;;;;;;;36.93;20.40;;;;;;;36.44;45.68;101398.97;5015145;28;20444;-74
2022/05/25 06:12:33;;;;;;;31.57;20.77;;;;;;;36.41;45.73;101405.75;5014956;28;20412;-74
2022/05/25 06:14:59;;;;;;;38.20;22.53;;;;;;;36.49;45.90;101410.56;5031184;28;20476;-74
2022/05/25 06:20:10;;;;;;;25.37;20.70;;;;;;;36.22;45.46;101418.31;5012556;28;20416;-73
2022/05/25 06:22:36;;;;;;;26.77;21.37;;;;;;;36.38;45.29;101427.91;5020008;28;20417;-72
2022/05/25 06:25:03;;;;;;;39.33;25.00;;;;;;;36.23;45.79;101428.81;5014041;28;20412;-72
2022/05/25 06:27:29;;;;;;;37.17;24.60;;;;;;;36.24;45.89;101426.94;5004626;28;20819;-74
2022/05/25 06:29:55;;;;;;;33.97;23.77;;;;;;;36.34;45.09;101432.28;5013340;28;20416;-73
2022/05/25 06:32:27;;;;;;;48.83;28.20;;;;;;;36.34;44.85;101437.69;5012924;28;20432;-73
2022/05/25 06:34:53;;;;;;;39.00;30.07;;;;;;;36.31;44.99;101439.03;5014270;28;20451;-72
2022/05/25 06:37:22;;;;;;;59.17;31.17;;;;;;;36.14;45.98;101435.91;5014626;28;20401;-71
2022/05/25 06:39:49;;;;;;;44.03;30.03;;;;;;;36.29;45.86;101441.22;5012351;28;20467;-71
2022/05/25 06:42:15;;;;;;;34.37;22.73;;;;;;;35.62;46.36;101448.03;5014034;28;20420;-71
2022/05/25 06:44:44;;;;;;;40.33;23.70;;;;;;;35.83;46.77;101454.13;5014607;28;20464;-71
2022/05/25 06:47:15;;;;;;;32.27;22.47;;;;;;;36.05;46.02;101453.78;5015767;28;20876;-71
2022/05/25 06:49:41;;;;;;;34.63;21.07;;;;;;;36.16;45.42;101458.06;5014200;28;20415;-71
2022/05/25 06:52:12;;;;;;;32.63;18.77;;;;;;;35.68;46.97;101470.41;5014040;28;20427;-72
2022/05/25 06:54:38;;;;;;;34.40;20.07;;;;;;;35.88;46.53;101466.81;5015447;28;20763;-72
2022/05/25 06:57:04;;;;;;;32.90;19.17;;;;;;;35.87;46.97;101466.00;5014086;28;20428;-72
2022/05/25 06:59:32;;;;;;;27.93;19.63;;;;;;;36.22;46.03;101472.34;5013969;28;20858;-71
2022/05/25 07:01:58;;;;;;;31.43;18.70;;;;;;;36.42;44.87;101469.53;5014019;28;20413;-72
2022/05/25 07:04:24;;;;;;;28.67;18.90;;;;;;;36.27;45.32;101469.56;5014052;28;20626;-70
2022/05/25 07:06:50;;;;;;;30.43;19.60;;;;;;;36.43;44.91;101473.03;5013700;28;20412;-72
2022/05/25 07:09:16;;;;;;;36.00;19.60;;;;;;;36.58;44.65;101481.00;5013261;28;20440;-70
2022/05/25 07:11:43;;;;;;;37.33;18.77;;;;;;;36.76;44.14;101487.63;5013811;28;20507;-71
2022/05/25 07:14:10;;;;;;;26.40;19.47;;;;;;;36.61;44.33;101482.34;5012024;28;20471;-70
2022/05/25 07:16:37;;;;;;;27.47;20.20;;;;;;;36.64;44.50;101485.28;4996629;28;20464;-72
2022/05/25 07:19:03;;;;;;;40.20;21.63;;;;;;;36.37;44.97;101469.50;4982797;28;21027;-69
2022/05/25 07:21:31;;;;;;;30.30;19.50;;;;;;;36.63;44.37;101482.88;5018968;28;20405;-71
2022/05/25 07:23:59;;;;;;;29.03;19.13;;;;;;;36.90;44.41;101480.53;5006408;28;20438;-70
2022/05/25 07:26:27;;;;;;;36.00;23.47;;;;;;;36.71;44.85;101474.16;4996982;28;20417;-72
2022/05/25 07:28:54;;;;;;;36.70;22.40;;;;;;;36.84;44.27;101473.50;4993918;28;20414;-71
2022/05/25 07:31:52;;;;;;;24.13;18.07;;;;;;;36.85;43.81;101477.81;5010515;28;20915;-71
2022/05/25 07:34:47;;;;;;;30.60;22.03;;;;;;;36.42;44.73;101488.44;5013550;28;20421;-72
2022/05/25 07:37:16;;;;;;;32.83;20.63;;;;;;;36.38;45.15;101487.34;5006754;28;20822;-74
2022/05/25 07:39:55;;;;;;;37.07;18.63;;;;;;;36.43;45.03;101492.75;5008774;28;20823;-73
2022/05/25 07:42:23;;;;;;;29.27;16.80;;;;;;;36.63;44.46;101493.69;5003678;28;20432;-73
2022/05/25 07:44:57;;;;;;;34.97;20.17;;;;;;;36.46;44.80;101502.16;5011729;28;20500;-73
2022/05/25 07:47:24;;;;;;;29.23;17.37;;;;;;;36.49;44.76;101505.13;5013266;28;20440;-72
2022/05/25 07:49:50;;;;;;;28.97;18.87;;;;;;;36.61;44.82;101501.28;5012027;28;20424;-71
2022/05/25 07:52:18;;;;;;;31.30;19.00;;;;;;;36.67;44.80;101506.34;5010440;28;20424;-73
2022/05/25 07:54:45;;;;;;;31.40;18.73;;;;;;;36.72;44.14;101506.31;5010975;28;20424;-74
2022/05/25 07:57:12;;;;;;;24.77;18.80;;;;;;;36.59;44.86;101507.78;5012950;28;20404;-76
2022/05/25 07:59:40;;;;;;;34.83;16.07;;;;;;;36.85;43.92;101512.97;5008508;28;20984;-76
2022/05/25 08:08:02;;;;;;;23.80;15.20;;;;;;;36.59;44.09;101521.28;5012220;28;20454;-75
2022/05/25 08:10:28;;;;;;;23.07;15.60;;;;;;;36.45;44.83;101527.59;5012040;28;20460;-72
2022/05/25 08:12:57;;;;;;;30.67;17.80;;;;;;;36.71;44.12;101514.69;5017754;28;20483;-75
2022/05/25 08:15:24;;;;;;;26.33;16.80;;;;;;;36.88;44.14;101522.44;5011986;28;20544;-73
2022/05/25 08:17:50;;;;;;;30.53;16.83;;;;;;;36.91;44.31;101528.09;4995743;28;20977;-72
2022/05/25 08:20:18;;;;;;;27.60;17.17;;;;;;;36.91;43.88;101532.72;5009692;28;20519;-72
2022/05/25 08:22:45;;;;;;;22.40;15.33;;;;;;;36.57;44.53;101526.16;5009267;28;20432;-71
2022/05/25 08:25:13;;;;;;;22.13;16.00;;;;;;;36.90;44.08;101531.91;5008977;28;20946;-74
2022/05/25 08:27:41;;;;;;;30.40;16.10;;;;;;;36.67;44.43;101536.09;5009803;28;20962;-74
2022/05/25 08:30:10;;;;;;;37.47;15.53;;;;;;;36.62;44.31;101530.72;4985226;28;20952;-71
2022/05/25 08:32:36;;;;;;;33.87;16.80;;;;;;;36.67;44.54;101538.00;5010741;28;20413;-71
2022/05/25 08:35:03;;;;;;;32.43;16.43;;;;;;;36.93;44.35;101539.44;5010539;28;20990;-72
2022/05/25 08:37:29;;;;;;;33.20;14.77;;;;;;;36.70;44.56;101543.63;5011827;28;21026;-71
2022/05/25 08:39:55;;;;;;;27.07;16.30;;;;;;;36.95;43.91;101544.56;5006898;28;20546;-72
2022/05/25 08:42:26;;;;;;;33.67;12.37;;;;;;;36.54;45.06;101544.84;5011141;28;20432;-72
2022/05/25 08:44:55;;;;;;;20.40;12.30;;;;;;;36.47;44.56;101536.25;5008810;28;20436;-72
2022/05/25 08:47:21;;;;;;;21.93;12.00;;;;;;;36.70;44.62;101538.22;5010019;28;20978;-71
2022/05/25 08:49:51;;;;;;;26.67;12.80;;;;;;;36.76;44.04;101547.09;5008415;28;20829;-71
2022/05/25 08:52:38;;;;;;;19.10;10.87;;;;;;;36.85;44.32;101543.53;5008661;28;20528;-71
2022/05/25 08:55:08;;;;;;;21.33;11.20;;;;;;;36.81;44.47;101541.66;5010503;28;20463;-71
2022/05/25 08:57:51;;;;;;;21.83;12.10;;;;;;;36.75;44.24;101540.09;5011502;28;20452;-70
2022/05/25 09:00:19;;;;;;;27.90;12.10;;;;;;;37.07;43.69;101550.41;5011931;28;20551;-72
2022/05/25 09:02:54;;;;;;;21.07;10.87;;;;;;;37.04;44.34;101546.38;5003420;28;20432;-69
2022/05/25 09:05:34;;;;;;;18.83;11.70;;;;;;;37.19;43.78;101552.72;5009279;28;20411;-70
2022/05/25 09:08:28;;;;;;;23.57;10.80;;;;;;;37.12;43.36;101553.88;5011933;28;20423;-70
2022/05/25 09:11:39;;;;;;;25.43;12.30;;;;;;;36.96;43.51;101547.00;5025637;28;20416;-68
2022/05/25 09:14:44;;;;;;;22.53;11.23;;;;;;;36.96;43.44;101546.19;4985324;28;20409;-71
2022/05/25 09:17:21;;;;;;;21.13;10.70;;;;;;;36.97;43.33;101548.59;5000697;28;20779;-70
2022/05/25 09:19:48;;;;;;;26.00;10.70;;;;;;;37.20;43.67;101551.63;5002538;28;20416;-69
2022/05/25 09:22:19;;;;;;;25.50;10.27;;;;;;;37.17;43.55;101546.81;5017686;28;20802;-71
2022/05/25 09:24:47;;;;;;;16.23;9.63;;;;;;;37.35;43.16;101551.53;4999943;28;20417;-71
2022/05/25 09:27:15;;;;;;;18.43;9.30;;;;;;;37.38;43.21;101551.78;5001140;28;20496;-71
2022/05/25 09:29:42;;;;;;;16.57;8.50;;;;;;;37.32;42.91;101550.19;5009783;28;20416;-72
2022/05/25 09:32:35;;;;;;;14.80;8.70;;;;;;;37.37;42.78;101544.72;5005695;28;20447;-72
2022/05/25 09:35:15;;;;;;;18.30;9.73;;;;;;;37.42;42.87;101551.19;5011674;28;20530;-71
2022/05/25 09:37:54;;;;;;;20.97;9.73;;;;;;;37.73;42.16;101551.66;5009784;28;20462;-71
2022/05/25 09:40:25;;;;;;;18.63;9.10;;;;;;;37.79;42.24;101554.03;5010336;28;20474;-70
2022/05/25 09:42:58;;;;;;;19.40;9.07;;;;;;;37.92;42.13;101558.78;5000756;28;20413;-71
2022/05/25 09:45:34;;;;;;;16.93;7.83;;;;;;;37.99;41.53;101555.72;5008288;28;20483;-70
2022/05/25 09:48:15;;;;;;;15.33;9.93;;;;;;;37.89;41.75;101563.97;5009263;28;20412;-74
2022/05/25 09:50:50;;;;;;;13.53;7.03;;;;;;;37.53;42.13;101558.94;5010975;28;20413;-72
2022/05/25 09:53:17;;;;;;;12.10;7.93;;;;;;;37.63;42.08;101558.84;5006240;28;20436;-71
2022/05/25 09:55:50;;;;;;;13.30;7.80;;;;;;;37.55;42.23;101545.09;5006209;28;20456;-72
2022/05/25 09:58:34;;;;;;;23.30;11.40;;;;;;;37.76;41.67;101545.69;5010760;28;20472;-71
2022/05/25 10:01:15;;;;;;;19.93;8.50;;;;;;;37.75;41.32;101547.59;5028218;28;20424;-72
2022/05/25 10:03:43;;;;;;;17.73;9.00;;;;;;;37.79;41.64;101545.09;5012844;28;20473;-72
2022/05/25 10:06:28;;;;;;;14.60;8.97;;;;;;;37.79;41.29;101545.91;5013494;28;20439;-72
2022/05/25 10:09:25;;;;;;;15.03;8.53;;;;;;;37.79;41.31;101542.41;5014630;28;20439;-72
2022/05/25 10:11:54;;;;;;;20.83;8.03;;;;;;;37.92;41.08;101536.31;5011015;28;20451;-71
2022/05/25 10:14:23;;;;;;;17.40;9.60;;;;;;;37.76;40.62;101532.97;5010103;28;20773;-72
2022/05/25 10:16:50;;;;;;;20.57;8.00;;;;;;;37.82;40.01;101539.16;5009812;28;20451;-72
2022/05/25 10:19:19;;;;;;;18.17;7.70;;;;;;;37.85;40.56;101527.72;5004941;28;20971;-72
2022/05/25 10:21:58;;;;;;;17.63;7.13;;;;;;;37.80;40.53;101525.06;5003557;28;20468;-72
2022/05/25 10:24:33;;;;;;;18.47;7.93;;;;;;;37.73;40.40;101522.69;5011613;28;21002;-72
2022/05/25 10:27:02;;;;;;;13.37;6.57;;;;;;;37.62;40.54;101523.91;5002632;28;20388;-72
2022/05/25 10:39:19;;;;;;;15.57;7.40;;;;;;;37.97;41.34;101508.34;4988195;28;20797;-71
2022/05/25 10:42:15;;;;;;;17.23;6.27;;;;;;;38.09;41.49;101503.31;5011851;28;20421;-72
2022/05/25 10:45:02;;;;;;;15.73;7.60;;;;;;;37.97;42.22;101500.22;5013152;28;20416;-73
2022/05/25 10:47:54;;;;;;;16.53;7.80;;;;;;;37.24;43.62;101504.00;5010624;28;20487;-72
2022/05/25 10:50:32;;;;;;;15.60;8.80;;;;;;;37.33;43.21;101496.88;5013252;28;20500;-73
2022/05/25 10:53:29;;;;;;;15.73;7.20;;;;;;;37.35;43.44;101490.09;5009598;28;20435;-71
2022/05/25 10:56:09;;;;;;;19.93;8.83;;;;;;;37.28;44.02;101488.81;5013805;28;20448;-71
2022/05/25 10:59:16;;;;;;;17.37;9.17;;;;;;;37.52;43.91;101486.94;5013495;28;20417;-72
2022/05/25 11:01:54;;;;;;;21.50;8.13;;;;;;;37.50;44.14;101497.22;5012546;28;20392;-73
2022/05/25 11:04:34;;;;;;;14.93;7.13;;;;;;;37.50;42.86;101497.22;5013319;28;20424;-72
2022/05/25 11:07:12;;;;;;;14.93;8.50;;;;;;;37.72;42.74;101487.78;5013006;28;20446;-72
2022/05/25 11:10:02;;;;;;;19.93;9.23;;;;;;;37.99;42.47;101484.47;5027647;28;20432;-72
2022/05/25 11:12:45;;;;;;;19.93;5.20;;;;;;;37.98;41.09;101489.09;4989905;28;20455;-71
2022/05/25 11:15:44;;;;;;;9.83;5.37;;;;;;;37.99;40.44;101485.28;5012368;28;21044;-72
2022/05/25 11:18:31;;;;;;;13.77;4.90;;;;;;;37.87;40.58;101484.91;5012219;28;20430;-72
2022/05/25 11:21:09;;;;;;;12.27;4.57;;;;;;;38.21;40.51;101483.91;5011023;28;20417;-72
2022/05/25 11:23:52;;;;;;;16.67;6.13;;;;;;;38.20;40.77;101479.59;5013186;28;20415;-72
2022/05/25 11:26:36;;;;;;;9.60;4.10;;;;;;;38.18;40.81;101477.16;5010593;28;20441;-72
2022/05/25 11:29:06;;;;;;;8.60;4.70;;;;;;;38.20;40.15;101477.69;5026799;28;20412;-74
2022/05/25 11:31:41;;;;;;;16.50;6.50;;;;;;;38.04;40.60;101477.09;5028039;28;20799;-73
2022/05/25 11:34:45;;;;;;;10.10;3.93;;;;;;;38.05;40.36;101470.56;5012540;28;20508;-72
2022/05/25 11:37:29;;;;;;;13.30;4.53;;;;;;;38.21;40.43;101462.25;4984622;28;20436;-72
2022/05/25 11:40:22;;;;;;;10.67;4.70;;;;;;;38.35;40.00;101452.28;5018333;28;20463;-72
2022/05/25 11:43:07;;;;;;;16.67;6.00;;;;;;;38.23;40.43;101462.75;5012509;28;20451;-72
2022/05/25 11:45:41;;;;;;;8.40;4.63;;;;;;;38.30;40.52;101455.88;5014080;28;20412;-72
2022/05/25 11:48:41;;;;;;;14.90;5.70;;;;;;;38.18;41.08;101453.63;5011160;28;20528;-72
2022/05/25 11:51:23;;;;;;;18.10;6.77;;;;;;;38.27;41.68;101459.19;5010230;28;20404;-72
2022/05/25 11:54:09;;;;;;;21.43;7.47;;;;;;;38.28;41.66;101452.66;5013002;28;20490;-72
2022/05/25 11:56:38;;;;;;;11.37;4.23;;;;;;;38.35;41.64;101449.59;5012255;28;20978;-72
2022/05/25 11:59:36;;;;;;;14.23;5.20;;;;;;;38.29;41.96;101450.75;5022754;28;20444;-71
2022/05/25 12:02:39;;;;;;;15.60;5.50;;;;;;;38.22;42.22;101447.59;5025671;28;20939;-72
2022/05/25 12:05:47;;;;;;;16.17;5.60;;;;;;;38.20;41.93;101444.38;5010338;28;20404;-71